Time;durP1;ratioP1;P1;durP2;ratioP2;P2;SDS_P1;SDS_P2;PMS_P1;PMS_P2;Temp;Humidity;BMP_temperature;BMP_pressure;BME280_temperature;BME280_humidity;BME280_pressure;Samples;Min_cycle;Max_cycle;Signal;HPM_P1;HPM_P2
2020/02/10 00:00:03;;;;;;;1.65;1.36;;;;;;;19.18;39.03;98875.90;;;;-62
2020/02/10 00:05:03;;;;;;;1.43;1.33;;;;;;;19.16;39.02;98852.67;;;;-61
2020/02/10 00:09:03;;;;;;;1.63;1.38;;;;;;;19.14;39.04;98857.31;;;;-62
2020/02/10 00:12:03;;;;;;;2.49;1.45;;;;;;;19.13;39.04;98825.80;;;;-63
2020/02/10 00:15:05;;;;;;;1.44;1.34;;;;;;;19.12;39.05;98842.05;;;;-62
2020/02/10 00:21:05;;;;;;;2.20;1.42;;;;;;;19.08;39.14;98808.43;;;;-60
2020/02/10 00:30:29;;;;;;;1.71;1.40;;;;;;;19.06;39.13;98807.30;;;;-62
2020/02/10 00:33:29;;;;;;;1.45;1.35;;;;;;;19.04;39.10;98804.41;;;;-61
2020/02/10 00:36:29;;;;;;;1.44;1.34;;;;;;;19.04;39.09;98784.40;;;;-62
2020/02/10 00:39:28;;;;;;;1.50;1.27;;;;;;;19.01;39.13;98781.70;;;;-62
2020/02/10 00:42:28;;;;;;;1.61;1.41;;;;;;;19.00;39.13;98787.53;;;;-62
2020/02/10 00:45:28;;;;;;;1.58;1.40;;;;;;;19.00;39.13;98769.03;;;;-62
2020/02/10 00:48:28;;;;;;;1.69;1.40;;;;;;;19.00;39.15;98782.25;;;;-62
2020/02/10 00:51:28;;;;;;;1.43;1.32;;;;;;;18.98;39.14;98793.69;;;;-62
2020/02/10 00:54:28;;;;;;;1.40;1.30;;;;;;;18.97;39.16;98778.77;;;;-61
2020/02/10 00:57:28;;;;;;;1.46;1.36;;;;;;;18.96;39.17;98795.98;;;;-60
2020/02/10 01:00:28;;;;;;;1.38;1.28;;;;;;;18.95;39.15;98760.34;;;;-62
2020/02/10 01:04:28;;;;;;;1.32;1.22;;;;;;;18.94;39.17;98735.99;;;;-62
2020/02/10 01:07:28;;;;;;;1.48;1.38;;;;;;;18.93;39.16;98750.36;;;;-61
2020/02/10 01:10:28;;;;;;;1.50;1.40;;;;;;;18.92;39.18;98730.34;;;;-61
2020/02/10 01:13:28;;;;;;;1.32;1.22;;;;;;;18.90;39.19;98709.89;;;;-61
2020/02/10 01:16:28;;;;;;;1.50;1.40;;;;;;;18.89;39.19;98708.14;;;;-60
2020/02/10 01:19:29;;;;;;;1.40;1.30;;;;;;;18.89;39.18;98722.33;;;;-61
2020/02/10 01:22:28;;;;;;;1.50;1.40;;;;;;;18.87;39.19;98683.78;;;;-62
2020/02/10 01:25:28;;;;;;;1.40;1.30;;;;;;;18.86;39.20;98679.79;;;;-61
2020/02/10 01:29:28;;;;;;;1.30;1.20;;;;;;;18.85;39.19;98668.19;;;;-61
2020/02/10 01:32:29;;;;;;;1.35;1.25;;;;;;;18.84;39.22;98672.84;;;;-61
2020/02/10 01:35:28;;;;;;;1.50;1.40;;;;;;;18.83;39.23;98672.71;;;;-62
2020/02/10 01:38:28;;;;;;;1.30;1.20;;;;;;;18.83;39.21;98674.64;;;;-62
2020/02/10 01:41:48;;;;;;;1.40;1.30;;;;;;;18.83;39.22;98669.86;;;;-62
2020/02/10 01:45:29;;;;;;;1.40;1.30;;;;;;;18.81;39.22;98667.08;;;;-61
2020/02/10 01:48:29;;;;;;;1.42;1.29;;;;;;;18.80;39.22;98679.44;;;;-62
2020/02/10 01:51:29;;;;;;;1.41;1.31;;;;;;;18.79;39.25;98676.68;;;;-62
2020/02/10 01:54:28;;;;;;;1.28;1.18;;;;;;;18.80;39.25;98662.38;;;;-61
2020/02/10 01:57:29;;;;;;;1.41;1.31;;;;;;;18.78;39.24;98656.35;;;;-61
2020/02/10 02:00:28;;;;;;;1.35;1.25;;;;;;;18.76;39.26;98641.27;;;;-61
2020/02/10 02:05:29;;;;;;;1.45;1.35;;;;;;;18.76;39.26;98642.84;;;;-61
2020/02/10 02:08:28;;;;;;;1.37;1.27;;;;;;;18.75;39.29;98625.84;;;;-61
2020/02/10 02:11:29;;;;;;;1.33;1.23;;;;;;;18.74;39.28;98625.66;;;;-62
2020/02/10 02:15:29;;;;;;;1.35;1.25;;;;;;;18.72;39.28;98653.47;;;;-61
2020/02/10 02:18:29;;;;;;;1.40;1.30;;;;;;;18.72;39.31;98608.89;;;;-61
2020/02/10 02:21:29;;;;;;;1.28;1.19;;;;;;;18.71;39.30;98611.59;;;;-61
2020/02/10 02:25:29;;;;;;;1.54;1.30;;;;;;;18.71;39.26;98620.95;;;;-62
2020/02/10 02:30:34;;;;;;;1.33;1.23;;;;;;;18.70;39.33;98628.19;;;;-62
2020/02/10 02:42:29;;;;;;;2.42;1.24;;;;;;;18.65;39.35;98607.45;;;;-61
2020/02/10 02:45:29;;;;;;;1.30;1.20;;;;;;;18.65;39.35;98614.14;;;;-62
2020/02/10 02:48:29;;;;;;;1.42;1.28;;;;;;;18.66;39.35;98640.48;;;;-62
2020/02/10 02:51:29;;;;;;;1.30;1.20;;;;;;;18.65;39.38;98630.94;;;;-62
2020/02/10 02:54:29;;;;;;;1.30;1.20;;;;;;;18.63;39.36;98643.54;;;;-61
2020/02/10 02:57:29;;;;;;;1.23;1.15;;;;;;;18.63;39.40;98628.83;;;;-62
2020/02/10 03:00:29;;;;;;;1.10;1.10;;;;;;;18.63;39.35;98650.30;;;;-61
2020/02/10 03:06:29;;;;;;;1.27;1.17;;;;;;;18.61;39.39;98621.84;;;;-61
2020/02/10 03:09:29;;;;;;;1.30;1.20;;;;;;;18.61;39.40;98623.53;;;;-61
2020/02/10 03:13:29;;;;;;;1.21;1.19;;;;;;;18.60;39.40;98617.33;;;;-62
2020/02/10 03:18:29;;;;;;;1.29;1.19;;;;;;;18.59;39.41;98604.08;;;;-61
2020/02/10 03:21:29;;;;;;;1.27;1.17;;;;;;;18.58;39.44;98607.34;;;;-62
2020/02/10 03:24:29;;;;;;;1.03;1.03;;;;;;;18.58;39.46;98607.91;;;;-62
2020/02/10 03:27:29;;;;;;;1.14;1.11;;;;;;;18.57;39.41;98587.59;;;;-61
2020/02/10 03:30:29;;;;;;;1.13;1.12;;;;;;;18.56;39.45;98600.78;;;;-61
2020/02/10 03:33:29;;;;;;;1.10;1.10;;;;;;;18.56;39.44;98580.38;;;;-62
2020/02/10 03:36:29;;;;;;;1.35;1.25;;;;;;;18.55;39.47;98579.20;;;;-62
2020/02/10 03:39:29;;;;;;;1.22;1.12;;;;;;;18.55;39.46;98595.34;;;;-61
2020/02/10 03:43:29;;;;;;;1.26;1.19;;;;;;;18.53;39.46;98630.81;;;;-61
2020/02/10 03:46:29;;;;;;;1.26;1.17;;;;;;;18.53;39.50;98608.48;;;;-61
2020/02/10 03:49:29;;;;;;;1.20;1.10;;;;;;;18.52;39.51;98636.07;;;;-61
2020/02/10 03:52:29;;;;;;;1.35;1.25;;;;;;;18.52;39.47;98633.73;;;;-61
2020/02/10 03:55:29;;;;;;;1.05;1.05;;;;;;;18.52;39.53;98612.08;;;;-61
2020/02/10 03:58:29;;;;;;;1.26;1.15;;;;;;;18.51;39.51;98621.34;;;;-61
2020/02/10 04:01:55;;;;;;;1.14;1.06;;;;;;;18.50;39.55;98637.11;;;;-61
2020/02/10 04:05:31;;;;;;;1.29;1.19;;;;;;;18.51;39.60;98633.11;;;;-62
2020/02/10 04:09:29;;;;;;;1.07;1.06;;;;;;;18.51;39.59;98647.42;;;;-61
2020/02/10 04:12:29;;;;;;;1.08;1.05;;;;;;;18.52;39.54;98631.70;;;;-62
2020/02/10 04:15:29;;;;;;;1.30;1.20;;;;;;;18.53;39.55;98638.67;;;;-61
2020/02/10 04:24:46;;;;;;;1.15;1.10;;;;;;;18.58;39.58;98649.80;;;;-62
2020/02/10 04:34:35;;;;;;;1.10;1.10;;;;;;;18.66;39.53;98699.77;;;;-62
2020/02/10 04:38:18;;;;;;;1.16;1.09;;;;;;;18.69;39.57;98705.75;;;;-62
2020/02/10 04:41:37;;;;;;;1.37;1.20;;;;;;;18.73;39.55;98719.77;;;;-62
2020/02/10 04:44:29;;;;;;;1.05;1.05;;;;;;;18.75;39.54;98712.05;;;;-62
2020/02/10 04:47:29;;;;;;;1.00;1.00;;;;;;;18.77;39.55;98732.98;;;;-62
2020/02/10 04:50:29;;;;;;;0.98;0.97;;;;;;;18.79;39.62;98665.40;;;;-61
2020/02/10 04:53:29;;;;;;;1.10;1.00;;;;;;;18.81;39.59;98703.11;;;;-62
2020/02/10 04:56:29;;;;;;;1.01;1.01;;;;;;;18.83;39.61;98708.16;;;;-61
2020/02/10 04:59:29;;;;;;;1.02;1.01;;;;;;;18.83;39.62;98710.96;;;;-61
2020/02/10 05:02:29;;;;;;;1.11;1.09;;;;;;;18.85;39.61;98719.00;;;;-62
2020/02/10 05:06:29;;;;;;;1.11;1.03;;;;;;;18.86;39.62;98747.19;;;;-62
2020/02/10 05:09:29;;;;;;;1.12;1.03;;;;;;;18.86;39.56;98755.23;;;;-61
2020/02/10 05:12:29;;;;;;;1.11;1.04;;;;;;;18.86;39.65;98772.54;;;;-61
2020/02/10 05:15:29;;;;;;;1.00;1.00;;;;;;;18.87;39.55;98813.70;;;;-61
2020/02/10 05:18:29;;;;;;;1.20;1.10;;;;;;;18.87;39.64;98874.67;;;;-62
2020/02/10 05:21:29;;;;;;;1.03;1.03;;;;;;;18.87;39.58;98910.30;;;;-62
2020/02/10 05:24:29;;;;;;;1.00;1.00;;;;;;;18.88;39.60;98913.74;;;;-62
2020/02/10 05:27:29;;;;;;;1.00;1.00;;;;;;;18.88;39.63;98918.59;;;;-61
2020/02/10 05:30:29;;;;;;;0.97;0.95;;;;;;;18.88;39.63;98930.70;;;;-63
2020/02/10 05:33:29;;;;;;;0.90;0.90;;;;;;;18.88;39.57;98921.20;;;;-62
2020/02/10 05:36:29;;;;;;;9.12;1.77;;;;;;;18.88;40.26;98897.11;;;;-54
2020/02/10 05:39:29;;;;;;;11.11;1.37;;;;;;;18.88;40.53;98886.81;;;;-57
2020/02/10 05:42:29;;;;;;;5.24;1.40;;;;;;;18.89;40.75;98880.37;;;;-55
2020/02/10 05:45:29;;;;;;;8.53;1.37;;;;;;;18.89;40.73;98890.41;;;;-54
2020/02/10 05:48:29;;;;;;;3.37;1.23;;;;;;;18.89;40.65;98892.52;;;;-54
2020/02/10 05:51:29;;;;;;;6.73;1.33;;;;;;;18.89;40.68;98890.17;;;;-64
2020/02/10 05:54:29;;;;;;;8.24;1.38;;;;;;;18.91;40.53;98892.80;;;;-65
2020/02/10 05:57:29;;;;;;;3.63;1.19;;;;;;;18.89;40.36;98897.03;;;;-66
2020/02/10 06:00:29;;;;;;;8.43;1.37;;;;;;;18.89;40.36;98903.46;;;;-52
2020/02/10 06:03:29;;;;;;;2.82;1.20;;;;;;;18.89;40.45;98905.56;;;;-55
2020/02/10 06:06:29;;;;;;;4.79;1.40;;;;;;;18.90;40.48;98920.91;;;;-52
2020/02/10 06:09:29;;;;;;;3.91;1.13;;;;;;;18.89;40.50;98925.57;;;;-53
2020/02/10 06:12:29;;;;;;;2.69;1.16;;;;;;;18.90;40.48;98925.32;;;;-53
2020/02/10 06:15:29;;;;;;;2.83;1.27;;;;;;;18.90;40.50;98910.27;;;;-54
2020/02/10 06:18:29;;;;;;;2.90;1.14;;;;;;;18.91;40.44;98950.77;;;;-54
2020/02/10 06:21:29;;;;;;;4.93;1.31;;;;;;;18.91;40.44;98938.33;;;;-53
2020/02/10 06:24:29;;;;;;;3.65;1.08;;;;;;;18.92;40.45;98968.95;;;;-53
2020/02/10 06:27:33;;;;;;;1.89;1.18;;;;;;;18.92;40.45;98988.86;;;;-56
2020/02/10 06:31:11;;;;;;;1.89;1.22;;;;;;;18.91;40.36;98993.52;;;;-54
2020/02/10 06:33:46;;;;;;;1.29;1.17;;;;;;;18.92;40.37;99003.72;;;;-55
2020/02/10 06:39:47;;;;;;;3.59;1.35;;;;;;;18.90;40.29;98975.50;;;;-57
2020/02/10 06:42:44;;;;;;;3.72;1.29;;;;;;;18.90;40.33;98977.34;;;;-58
2020/02/10 06:46:35;;;;;;;4.24;1.19;;;;;;;18.89;40.28;98965.19;;;;-49
2020/02/10 06:49:39;;;;;;;2.93;1.31;;;;;;;18.88;40.16;98988.44;;;;-47
2020/02/10 06:52:46;;;;;;;1.77;1.07;;;;;;;18.88;40.14;99017.84;;;;-48
2020/02/10 07:06:43;;;;;;;2.41;1.11;;;;;;;18.85;40.06;99022.80;;;;-48
2020/02/10 07:14:47;;;;;;;1.87;1.13;;;;;;;18.82;40.01;99014.72;;;;-48
2020/02/10 07:17:43;;;;;;;1.33;1.09;;;;;;;18.83;40.00;99044.92;;;;-48
2020/02/10 07:20:51;;;;;;;1.05;0.95;;;;;;;18.82;39.97;99065.33;;;;-48
2020/02/10 07:24:10;;;;;;;1.50;1.21;;;;;;;18.82;39.99;99046.80;;;;-48
2020/02/10 07:26:48;;;;;;;2.42;1.16;;;;;;;18.81;39.95;99074.57;;;;-48
2020/02/10 07:29:57;;;;;;;1.20;0.97;;;;;;;18.81;39.99;99081.73;;;;-49
2020/02/10 07:40:45;;;;;;;1.41;1.07;;;;;;;18.80;39.91;99127.80;;;;-48
2020/02/10 07:43:45;;;;;;;1.18;1.05;;;;;;;18.80;39.94;99134.76;;;;-48
2020/02/10 07:49:37;;;;;;;2.54;1.27;;;;;;;18.79;39.89;99157.58;;;;-48
2020/02/10 07:52:56;;;;;;;1.76;1.09;;;;;;;18.78;39.90;99170.49;;;;-48
2020/02/10 07:55:54;;;;;;;1.33;1.09;;;;;;;18.78;39.87;99181.62;;;;-52
2020/02/10 08:08:05;;;;;;;1.04;0.97;;;;;;;18.77;39.86;99230.67;;;;-53
2020/02/10 08:11:02;;;;;;;1.42;0.94;;;;;;;18.77;39.84;99228.56;;;;-53
2020/02/10 08:20:03;;;;;;;1.05;0.90;;;;;;;18.75;39.85;99274.37;;;;-53
2020/02/10 08:23:08;;;;;;;1.17;1.07;;;;;;;18.76;39.82;99279.48;;;;-52
2020/02/10 08:30:04;;;;;;;2.02;1.00;;;;;;;18.80;40.91;99296.22;;;;-54
2020/02/10 08:33:02;;;;;;;2.67;1.22;;;;;;;18.82;41.15;99282.42;;;;-53
2020/02/10 08:36:14;;;;;;;3.67;1.17;;;;;;;18.85;40.95;99288.91;;;;-53
2020/02/10 08:39:15;;;;;;;1.15;1.03;;;;;;;18.88;40.92;99291.86;;;;-53
2020/02/10 08:42:09;;;;;;;2.50;1.19;;;;;;;18.90;40.89;99322.77;;;;-51
2020/02/10 08:45:13;;;;;;;2.90;1.43;;;;;;;18.92;41.24;99320.98;;;;-50
2020/02/10 08:51:10;;;;;;;2.73;1.20;;;;;;;18.97;41.23;99343.71;;;;-53
2020/02/10 08:54:10;;;;;;;1.53;1.10;;;;;;;19.00;41.22;99351.56;;;;-55
2020/02/10 08:57:04;;;;;;;6.14;1.51;;;;;;;19.03;41.05;99353.59;;;;-53
2020/02/10 09:05:39;;;;;;;1.95;1.06;;;;;;;19.15;41.07;99371.27;;;;-55
2020/02/10 09:08:04;;;;;;;3.01;1.22;;;;;;;19.21;41.34;99395.03;;;;-61
2020/02/10 09:18:45;;;;;;;1.64;1.17;;;;;;;19.29;40.85;99401.86;;;;-57
2020/02/10 09:25:08;;;;;;;1.84;1.10;;;;;;;19.43;41.44;99409.61;;;;-55
2020/02/10 09:28:05;;;;;;;1.67;1.18;;;;;;;19.45;40.99;99421.56;;;;-52
2020/02/10 09:31:12;;;;;;;3.44;1.30;;;;;;;19.50;41.24;99443.30;;;;-62
2020/02/10 09:38:06;;;;;;;1.73;1.09;;;;;;;19.59;41.17;99452.39;;;;-57
2020/02/10 09:41:06;;;;;;;2.00;1.19;;;;;;;19.61;41.16;99469.46;;;;-53
2020/02/10 09:50:04;;;;;;;3.70;1.40;;;;;;;19.68;41.12;99503.90;;;;-59
2020/02/10 09:53:14;;;;;;;1.57;1.05;;;;;;;19.71;41.14;99523.72;;;;-57
2020/02/10 09:56:02;;;;;;;3.68;1.23;;;;;;;19.74;40.77;99503.66;;;;-56
2020/02/10 09:59:47;;;;;;;4.06;1.24;;;;;;;19.74;40.54;99513.18;;;;-56
2020/02/10 10:06:15;;;;;;;3.23;1.17;;;;;;;19.73;40.45;99545.55;;;;-56
2020/02/10 10:13:52;;;;;;;1.54;1.17;;;;;;;19.73;40.69;99575.73;;;;-58
2020/02/10 10:17:14;;;;;;;1.69;1.18;;;;;;;19.74;40.72;99594.77;;;;-52
2020/02/10 10:20:02;;;;;;;1.74;1.20;;;;;;;19.74;40.66;99606.19;;;;-56
2020/02/10 10:23:11;;;;;;;2.15;1.11;;;;;;;19.74;40.54;99590.77;;;;-52
2020/02/10 10:26:13;;;;;;;4.04;1.29;;;;;;;19.74;40.40;99591.84;;;;-52
2020/02/10 10:33:48;;;;;;;1.66;1.15;;;;;;;19.75;40.31;99615.50;;;;-53
2020/02/10 10:37:41;;;;;;;4.98;1.25;;;;;;;19.75;40.11;99629.80;;;;-53
2020/02/10 10:46:09;;;;;;;1.54;1.13;;;;;;;19.77;40.57;99640.08;;;;-56
2020/02/10 10:49:01;;;;;;;1.25;1.11;;;;;;;19.78;40.62;99669.20;;;;-57
2020/02/10 10:52:04;;;;;;;2.02;1.18;;;;;;;19.77;40.45;99657.77;;;;-54
2020/02/10 10:59:08;;;;;;;2.14;1.22;;;;;;;19.80;40.55;99656.86;;;;-54
2020/02/10 11:10:13;;;;;;;1.93;1.15;;;;;;;19.80;40.62;99689.70;;;;-50
2020/02/10 11:13:12;;;;;;;1.97;1.11;;;;;;;19.81;40.64;99687.78;;;;-53
2020/02/10 11:19:09;;;;;;;1.35;1.05;;;;;;;19.83;40.62;99693.71;;;;-52
2020/02/10 11:25:05;;;;;;;1.72;1.10;;;;;;;19.84;40.42;99705.14;;;;-57
2020/02/10 11:28:09;;;;;;;1.87;1.13;;;;;;;19.85;40.26;99716.46;;;;-54
2020/02/10 11:35:09;;;;;;;1.79;1.11;;;;;;;19.87;40.50;99739.24;;;;-53
2020/02/10 11:38:07;;;;;;;5.18;1.22;;;;;;;19.87;40.07;99738.58;;;;-53
2020/02/10 11:50:26;;;;;;;1.15;1.05;;;;;;;19.83;39.87;99710.73;;;;-53
2020/02/10 11:53:21;;;;;;;1.86;1.13;;;;;;;19.83;39.76;99727.55;;;;-53
2020/02/10 11:56:20;;;;;;;1.37;1.03;;;;;;;19.81;39.73;99732.79;;;;-53
2020/02/10 11:59:19;;;;;;;1.82;1.21;;;;;;;19.81;39.78;99728.77;;;;-50
2020/02/10 12:02:12;;;;;;;0.98;0.93;;;;;;;19.80;39.72;99735.77;;;;-49
2020/02/10 12:09:23;;;;;;;2.05;1.13;;;;;;;19.82;39.82;99766.83;;;;-50
2020/02/10 12:17:50;;;;;;;2.51;1.11;;;;;;;19.80;39.68;99771.53;;;;-51
2020/02/10 12:21:15;;;;;;;1.21;1.08;;;;;;;19.79;39.61;99766.91;;;;-50
2020/02/10 12:30:46;;;;;;;1.55;1.15;;;;;;;19.79;39.60;99800.14;;;;-51
2020/02/10 12:34:08;;;;;;;1.25;1.02;;;;;;;19.77;39.58;99780.58;;;;-50
2020/02/10 12:37:02;;;;;;;1.73;1.01;;;;;;;19.78;39.54;99799.27;;;;-50
2020/02/10 12:40:08;;;;;;;1.61;1.10;;;;;;;19.77;39.82;99806.78;;;;-48
2020/02/10 12:43:11;;;;;;;1.62;1.10;;;;;;;19.78;39.83;99812.78;;;;-52
2020/02/10 12:46:21;;;;;;;1.77;1.25;;;;;;;19.77;39.82;99813.66;;;;-49
2020/02/10 12:49:10;;;;;;;2.13;1.28;;;;;;;19.77;39.63;99812.31;;;;-53
2020/02/10 12:55:10;;;;;;;1.91;1.17;;;;;;;19.77;39.30;99805.20;;;;-49
2020/02/10 13:01:05;;;;;;;1.78;1.00;;;;;;;19.77;39.37;99808.80;;;;-49
2020/02/10 13:04:43;;;;;;;1.67;1.07;;;;;;;19.77;39.33;99801.75;;;;-58
2020/02/10 13:07:17;;;;;;;1.57;1.11;;;;;;;19.76;39.32;99798.54;;;;-58
2020/02/10 13:10:04;;;;;;;1.31;1.01;;;;;;;19.76;39.32;99798.54;;;;-59
2020/02/10 13:13:15;;;;;;;1.70;1.21;;;;;;;19.76;39.36;99787.65;;;;-58
2020/02/10 13:34:06;;;;;;;1.34;1.12;;;;;;;19.75;39.27;99754.21;;;;-58
2020/02/10 13:37:24;;;;;;;1.92;0.98;;;;;;;19.74;39.23;99755.11;;;;-58
2020/02/10 13:40:04;;;;;;;1.27;1.10;;;;;;;19.74;39.30;99755.59;;;;-58
2020/02/10 13:43:24;;;;;;;1.96;1.18;;;;;;;19.74;39.27;99743.19;;;;-57
2020/02/10 13:50:03;;;;;;;1.10;0.93;;;;;;;19.73;39.29;99733.51;;;;-58
2020/02/10 14:00:09;;;;;;;1.35;1.10;;;;;;;19.72;39.28;99739.77;;;;-48
2020/02/10 14:03:11;;;;;;;1.70;1.18;;;;;;;19.72;39.27;99745.64;;;;-48
2020/02/10 14:06:13;;;;;;;2.14;1.17;;;;;;;19.72;39.24;99759.27;;;;-49
2020/02/10 14:09:10;;;;;;;1.69;1.15;;;;;;;19.72;39.25;99764.23;;;;-47
2020/02/10 14:12:22;;;;;;;1.66;1.28;;;;;;;19.71;39.28;99758.44;;;;-49
2020/02/10 14:15:06;;;;;;;1.25;1.10;;;;;;;19.72;39.21;99749.83;;;;-49
2020/02/10 14:23:46;;;;;;;1.79;1.26;;;;;;;19.72;39.26;99739.51;;;;-48
2020/02/10 14:30:24;;;;;;;1.37;1.12;;;;;;;19.72;39.25;99753.02;;;;-48
2020/02/10 14:33:05;;;;;;;1.49;1.15;;;;;;;19.72;39.21;99746.64;;;;-48
2020/02/10 14:46:12;;;;;;;1.20;1.09;;;;;;;19.72;39.20;99744.33;;;;-48
2020/02/10 14:54:16;;;;;;;1.73;1.13;;;;;;;19.73;39.18;99743.23;;;;-47
2020/02/10 14:57:12;;;;;;;1.55;1.20;;;;;;;19.71;39.16;99740.84;;;;-49
2020/02/10 15:00:09;;;;;;;1.49;1.08;;;;;;;19.72;39.18;99735.98;;;;-50
2020/02/10 15:03:25;;;;;;;1.65;1.19;;;;;;;19.72;39.16;99731.97;;;;-48
2020/02/10 15:06:13;;;;;;;1.13;1.03;;;;;;;19.72;39.18;99721.85;;;;-48
2020/02/10 15:09:05;;;;;;;1.05;0.98;;;;;;;19.72;39.19;99736.29;;;;-48
2020/02/10 15:12:03;;;;;;;1.63;1.11;;;;;;;19.73;39.18;99722.38;;;;-48
2020/02/10 15:22:40;;;;;;;1.49;1.19;;;;;;;19.75;39.12;99737.02;;;;-48
2020/02/10 15:25:48;;;;;;;1.70;1.12;;;;;;;19.75;39.16;99726.97;;;;-48
2020/02/10 15:29:03;;;;;;;1.65;1.10;;;;;;;19.75;39.11;99715.51;;;;-49
2020/02/10 15:39:40;;;;;;;1.93;1.11;;;;;;;19.76;39.14;99693.66;;;;-48
2020/02/10 15:43:06;;;;;;;1.30;1.16;;;;;;;19.77;39.13;99708.11;;;;-48
2020/02/10 15:46:06;;;;;;;1.41;1.11;;;;;;;19.77;39.16;99698.32;;;;-48
2020/02/10 15:49:13;;;;;;;1.50;1.19;;;;;;;19.77;39.14;99687.42;;;;-51
2020/02/10 15:59:11;;;;;;;2.27;1.21;;;;;;;19.76;38.84;99661.83;;;;-53
2020/02/10 16:02:04;;;;;;;2.87;1.19;;;;;;;19.78;38.76;99646.65;;;;-51
2020/02/10 16:05:19;;;;;;;2.79;1.34;;;;;;;19.77;38.84;99633.81;;;;-53
2020/02/10 16:08:06;;;;;;;2.68;1.42;;;;;;;19.77;38.87;99618.07;;;;-51
2020/02/10 16:11:13;;;;;;;1.89;1.22;;;;;;;19.77;38.93;99601.15;;;;-50
2020/02/10 16:14:08;;;;;;;2.34;1.27;;;;;;;19.77;38.94;99587.98;;;;-51
2020/02/10 16:17:20;;;;;;;2.04;1.42;;;;;;;19.77;38.98;99587.08;;;;-51
2020/02/10 16:21:21;;;;;;;1.89;1.15;;;;;;;19.78;38.91;99567.23;;;;-51
2020/02/10 16:29:00;;;;;;;1.57;1.21;;;;;;;19.78;39.02;99541.53;;;;-56
2020/02/10 16:31:55;;;;;;;1.33;1.10;;;;;;;19.78;39.03;99540.27;;;;-56
2020/02/10 16:35:55;;;;;;;1.25;1.07;;;;;;;19.77;39.03;99533.70;;;;-55
2020/02/10 16:38:55;;;;;;;1.33;1.07;;;;;;;19.78;39.05;99520.77;;;;-55
2020/02/10 16:41:55;;;;;;;2.87;1.35;;;;;;;19.78;39.01;99514.56;;;;-56
2020/02/10 16:44:55;;;;;;;1.19;1.09;;;;;;;19.79;39.01;99504.70;;;;-56
2020/02/10 16:47:55;;;;;;;3.23;1.45;;;;;;;19.81;39.36;99514.65;;;;-51
2020/02/10 16:50:55;;;;;;;2.02;1.19;;;;;;;19.82;39.68;99515.69;;;;-61
2020/02/10 16:53:55;;;;;;;2.03;1.30;;;;;;;19.84;39.79;99529.11;;;;-61
2020/02/10 16:56:55;;;;;;;2.19;1.39;;;;;;;19.84;39.72;99519.42;;;;-59
2020/02/10 16:59:55;;;;;;;2.69;1.21;;;;;;;19.88;39.87;99514.81;;;;-50
2020/02/10 17:02:55;;;;;;;1.82;1.27;;;;;;;19.89;39.61;99509.64;;;;-56
2020/02/10 17:05:55;;;;;;;2.24;1.31;;;;;;;19.91;39.87;99506.18;;;;-57
2020/02/10 17:08:55;;;;;;;2.11;1.30;;;;;;;19.91;39.78;99483.92;;;;-53
2020/02/10 17:11:55;;;;;;;2.50;1.30;;;;;;;19.93;39.89;99465.21;;;;-55
2020/02/10 17:14:55;;;;;;;2.20;1.30;;;;;;;19.93;39.42;99460.76;;;;-52
2020/02/10 17:17:55;;;;;;;2.15;1.38;;;;;;;19.94;39.46;99455.75;;;;-52
2020/02/10 17:20:55;;;;;;;3.61;1.59;;;;;;;19.95;39.33;99449.01;;;;-53
2020/02/10 17:23:55;;;;;;;1.95;1.29;;;;;;;19.95;39.34;99438.12;;;;-52
2020/02/10 17:26:55;;;;;;;1.58;1.20;;;;;;;19.96;39.41;99433.69;;;;-53
2020/02/10 17:29:55;;;;;;;1.72;1.30;;;;;;;19.98;39.53;99424.39;;;;-54
2020/02/10 17:32:55;;;;;;;2.19;1.35;;;;;;;19.97;39.46;99435.13;;;;-54
2020/02/10 17:35:55;;;;;;;1.29;1.19;;;;;;;19.95;39.34;99430.31;;;;-54
2020/02/10 17:38:55;;;;;;;1.67;1.27;;;;;;;19.95;39.34;99422.53;;;;-55
2020/02/10 17:42:55;;;;;;;1.95;1.10;;;;;;;19.94;39.27;99408.84;;;;-54
2020/02/10 17:45:55;;;;;;;2.59;1.23;;;;;;;19.93;39.26;99397.98;;;;-54
2020/02/10 17:49:02;;;;;;;1.49;1.14;;;;;;;19.92;39.22;99390.52;;;;-55
2020/02/10 17:52:27;;;;;;;1.73;1.17;;;;;;;19.92;39.21;99391.86;;;;-54
2020/02/10 18:07:05;;;;;;;1.49;1.31;;;;;;;19.90;39.20;99310.45;;;;-51
2020/02/10 18:15:09;;;;;;;1.37;1.21;;;;;;;19.89;39.20;99298.45;;;;-51
2020/02/10 18:18:06;;;;;;;1.73;1.19;;;;;;;19.90;39.17;99296.98;;;;-51
2020/02/10 18:21:07;;;;;;;1.77;1.11;;;;;;;19.90;39.17;99296.41;;;;-51
2020/02/10 18:25:18;;;;;;;1.60;1.05;;;;;;;19.90;39.19;99282.06;;;;-51
2020/02/10 18:28:21;;;;;;;1.36;1.15;;;;;;;19.91;39.17;99289.47;;;;-50
2020/02/10 18:31:22;;;;;;;2.50;1.11;;;;;;;19.91;39.17;99277.73;;;;-51
2020/02/10 18:34:40;;;;;;;1.25;1.13;;;;;;;19.90;39.17;99271.17;;;;-51
2020/02/10 18:36:57;;;;;;;1.48;1.05;;;;;;;19.91;39.13;99301.69;;;;-50
2020/02/10 18:39:55;;;;;;;1.20;1.10;;;;;;;19.92;39.17;99300.84;;;;-50
2020/02/10 18:43:55;;;;;;;2.75;1.33;;;;;;;19.92;39.08;99311.09;;;;-50
2020/02/10 18:46:55;;;;;;;3.06;1.69;;;;;;;19.92;38.74;99292.80;;;;-48
2020/02/10 18:49:55;;;;;;;2.07;1.39;;;;;;;19.92;38.64;99271.80;;;;-50
2020/02/10 18:52:55;;;;;;;2.00;1.38;;;;;;;19.91;38.50;99252.16;;;;-52
2020/02/10 18:55:55;;;;;;;1.95;1.40;;;;;;;19.92;38.77;99243.73;;;;-51
2020/02/10 18:58:55;;;;;;;2.11;1.57;;;;;;;19.92;38.54;99219.95;;;;-52
2020/02/10 19:01:55;;;;;;;3.03;1.62;;;;;;;19.92;38.69;99230.34;;;;-52
2020/02/10 19:04:55;;;;;;;2.79;1.49;;;;;;;19.91;38.99;99222.44;;;;-50
2020/02/10 19:07:55;;;;;;;2.65;1.45;;;;;;;19.89;38.83;99225.24;;;;-50
2020/02/10 19:10:55;;;;;;;2.99;1.57;;;;;;;19.88;38.84;99223.37;;;;-49
2020/02/10 19:13:55;;;;;;;2.59;1.50;;;;;;;19.86;38.89;99228.52;;;;-49
2020/02/10 19:17:00;;;;;;;3.87;1.60;;;;;;;19.85;38.83;99224.24;;;;-49
2020/02/10 19:19:55;;;;;;;3.19;1.50;;;;;;;19.84;38.82;99218.52;;;;-48
2020/02/10 19:22:55;;;;;;;3.34;1.67;;;;;;;19.84;38.73;99218.09;;;;-53
2020/02/10 19:25:55;;;;;;;4.32;1.67;;;;;;;19.84;38.86;99194.30;;;;-51
2020/02/10 19:28:55;;;;;;;2.51;1.51;;;;;;;19.84;39.02;99181.41;;;;-53
2020/02/10 19:31:55;;;;;;;2.31;1.43;;;;;;;19.84;39.08;99204.69;;;;-50
2020/02/10 19:34:55;;;;;;;2.04;1.42;;;;;;;19.84;39.14;99204.35;;;;-49
2020/02/10 19:37:55;;;;;;;2.21;1.42;;;;;;;19.84;39.26;99217.66;;;;-46
2020/02/10 19:40:55;;;;;;;2.33;1.46;;;;;;;19.83;39.33;99220.41;;;;-51
2020/02/10 19:43:55;;;;;;;2.33;1.59;;;;;;;19.83;39.30;99221.86;;;;-54
2020/02/10 19:46:55;;;;;;;4.74;1.75;;;;;;;19.80;39.33;99208.78;;;;-47
2020/02/10 19:49:55;;;;;;;2.64;1.66;;;;;;;19.77;39.21;99204.62;;;;-47
2020/02/10 19:52:55;;;;;;;3.27;1.80;;;;;;;19.75;39.09;99182.30;;;;-52
2020/02/10 19:55:55;;;;;;;4.21;1.77;;;;;;;19.73;38.98;99167.32;;;;-49
2020/02/10 19:59:01;;;;;;;3.07;1.71;;;;;;;19.72;39.01;99175.50;;;;-52
2020/02/10 20:02:03;;;;;;;3.18;1.88;;;;;;;19.71;39.18;99165.05;;;;-51
2020/02/10 20:05:03;;;;;;;3.64;1.85;;;;;;;19.72;39.24;99132.22;;;;-48
2020/02/10 20:07:55;;;;;;;3.69;1.55;;;;;;;19.72;39.23;99112.36;;;;-51
2020/02/10 20:10:56;;;;;;;4.59;1.65;;;;;;;19.72;39.27;99112.66;;;;-52
2020/02/10 20:13:55;;;;;;;2.94;1.77;;;;;;;19.72;39.33;99120.93;;;;-53
2020/02/10 20:16:55;;;;;;;2.07;1.55;;;;;;;19.71;39.39;99095.95;;;;-52
2020/02/10 20:19:55;;;;;;;2.45;1.52;;;;;;;19.70;39.37;99054.66;;;;-51
2020/02/10 20:22:55;;;;;;;2.31;1.52;;;;;;;19.71;39.43;99057.50;;;;-52
2020/02/10 20:25:55;;;;;;;2.12;1.56;;;;;;;19.70;39.52;99067.86;;;;-52
2020/02/10 20:28:55;;;;;;;2.97;1.59;;;;;;;19.69;39.51;99102.20;;;;-52
2020/02/10 20:31:55;;;;;;;2.97;1.69;;;;;;;19.69;39.51;99144.24;;;;-52
2020/02/10 20:34:55;;;;;;;3.57;1.55;;;;;;;19.68;39.52;99158.29;;;;-55
2020/02/10 20:37:55;;;;;;;4.99;1.85;;;;;;;19.68;39.54;99148.88;;;;-50
2020/02/10 20:40:55;;;;;;;3.35;1.79;;;;;;;19.67;39.59;99133.98;;;;-54
2020/02/10 20:43:55;;;;;;;2.83;1.69;;;;;;;19.66;39.60;99126.16;;;;-52
2020/02/10 20:46:55;;;;;;;2.09;1.66;;;;;;;19.65;39.59;99122.95;;;;-55
2020/02/10 20:49:55;;;;;;;3.19;1.61;;;;;;;19.64;39.58;99132.91;;;;-55
2020/02/10 20:52:55;;;;;;;2.71;1.69;;;;;;;19.63;39.61;99131.95;;;;-51
2020/02/10 21:07:08;;;;;;;4.83;1.71;;;;;;;19.61;39.61;99158.09;;;;-51
2020/02/10 21:10:28;;;;;;;3.92;1.81;;;;;;;19.57;39.65;99158.54;;;;-51
2020/02/10 21:13:33;;;;;;;3.35;1.59;;;;;;;19.56;39.66;99151.66;;;;-50
2020/02/10 21:20:37;;;;;;;3.56;1.60;;;;;;;19.51;39.64;99167.61;;;;-50
2020/02/10 21:23:21;;;;;;;2.37;1.40;;;;;;;19.49;39.60;99149.38;;;;-50
2020/02/10 21:26:42;;;;;;;1.63;1.39;;;;;;;19.46;39.58;99138.19;;;;-50
2020/02/10 21:29:24;;;;;;;3.39;1.38;;;;;;;19.45;39.60;99130.47;;;;-50
2020/02/10 21:32:35;;;;;;;1.95;1.39;;;;;;;19.43;39.55;99127.91;;;;-50
2020/02/10 21:35:31;;;;;;;2.06;1.59;;;;;;;19.41;39.58;99132.22;;;;-50
2020/02/10 21:38:33;;;;;;;3.10;1.61;;;;;;;19.39;39.57;99137.95;;;;-50
2020/02/10 21:41:25;;;;;;;2.71;1.51;;;;;;;19.37;39.55;99145.84;;;;-50
2020/02/10 21:44:37;;;;;;;2.08;1.45;;;;;;;19.34;39.59;99139.69;;;;-50
2020/02/10 21:47:26;;;;;;;2.39;1.50;;;;;;;19.33;39.58;99122.48;;;;-50
2020/02/10 21:57:23;;;;;;;2.19;1.46;;;;;;;19.27;39.61;99148.22;;;;-50
2020/02/10 22:01:01;;;;;;;2.51;1.51;;;;;;;19.25;39.67;99160.39;;;;-50
2020/02/10 22:06:26;;;;;;;1.85;1.35;;;;;;;19.21;39.63;99133.44;;;;-50
2020/02/10 22:09:28;;;;;;;1.97;1.31;;;;;;;19.20;39.65;99120.20;;;;-50
2020/02/10 22:17:22;;;;;;;1.75;1.33;;;;;;;19.16;39.63;99120.20;;;;-51
2020/02/10 22:25:24;;;;;;;1.78;1.31;;;;;;;19.11;39.63;99129.08;;;;-50
2020/02/10 22:28:40;;;;;;;1.91;1.53;;;;;;;19.10;39.65;99141.77;;;;-50
2020/02/10 22:31:35;;;;;;;4.07;1.39;;;;;;;19.08;39.65;99123.98;;;;-50
2020/02/10 22:35:21;;;;;;;2.99;1.27;;;;;;;19.07;39.65;99129.22;;;;-50
2020/02/10 22:43:16;;;;;;;1.63;1.30;;;;;;;19.02;39.69;99148.77;;;;-50
2020/02/10 22:46:16;;;;;;;1.47;1.19;;;;;;;19.00;39.70;99165.11;;;;-51